Time;durP1;ratioP1;P1;durP2;ratioP2;P2;SDS_P1;SDS_P2;PMS_P1;PMS_P2;Temp;Humidity;BMP_temperature;BMP_pressure;BME280_temperature;BME280_humidity;BME280_pressure;Samples;Min_cycle;Max_cycle;Signal;HPM_P1;HPM_P2
2022/02/03 00:00:05;;;;;;;23.77;21.17;;;;;22.00;100953.00;;;;2042403;28;20232;-46
2022/02/03 00:01:11;;;;;;;25.73;22.15;;;;;22.00;100952.00;;;;2051158;28;20216;-46
2022/02/03 00:02:36;;;;;;;26.85;22.00;;;;;22.00;100959.00;;;;2053768;28;20216;-46
2022/02/03 00:03:50;;;;;;;23.75;20.75;;;;;22.00;100959.00;;;;2053562;28;20239;-46
2022/02/03 00:05:03;;;;;;;24.73;20.23;;;;;22.00;100953.00;;;;2054177;28;20672;-46
2022/02/03 00:06:09;;;;;;;22.17;19.90;;;;;22.00;100952.00;;;;2050627;28;20290;-46
2022/02/03 00:07:14;;;;;;;23.08;20.38;;;;;22.00;100952.00;;;;2048039;28;20220;-46
2022/02/03 00:16:45;;;;;;;21.77;19.45;;;;;22.00;100951.00;;;;2053170;28;20899;-46
2022/02/03 00:24:20;;;;;;;23.77;19.05;;;;;21.90;100945.00;;;;2053267;28;20223;-46
2022/02/03 00:25:28;;;;;;;21.15;18.95;;;;;21.90;100936.00;;;;2054555;28;20386;-46
2022/02/03 00:26:34;;;;;;;20.63;17.77;;;;;21.90;100933.00;;;;2054088;28;20239;-46
2022/02/03 00:27:43;;;;;;;19.85;17.73;;;;;21.90;100940.00;;;;2053719;28;20326;-46
2022/02/03 00:28:47;;;;;;;20.60;18.48;;;;;21.90;100937.00;;;;2054506;28;20281;-46
2022/02/03 00:29:59;;;;;;;20.13;17.63;;;;;21.90;100942.00;;;;2053813;28;20214;-46
2022/02/03 00:31:11;;;;;;;19.27;16.92;;;;;21.90;100940.00;;;;2053542;28;20219;-46
2022/02/03 00:33:47;;;;;;;21.15;18.95;;;;;21.90;100943.00;;;;2061463;28;20301;-46
2022/02/03 00:35:06;;;;;;;21.52;17.58;;;;;21.90;100940.00;;;;2055431;28;20218;-46
2022/02/03 00:36:16;;;;;;;20.17;17.65;;;;;21.90;100937.00;;;;2052840;28;20218;-46
2022/02/03 00:37:30;;;;;;;20.48;17.63;;;;;21.90;100931.00;;;;2053399;28;20250;-46
2022/02/03 00:49:00;;;;;;;19.23;17.00;;;;;21.80;100922.00;;;;2053371;28;20207;-46
2022/02/03 00:51:02;;;;;;;19.10;16.80;;;;;21.80;100924.00;;;;2037821;28;20291;-46
2022/02/03 00:52:02;;;;;;;17.25;15.55;;;;;21.80;100930.00;;;;2045028;28;20898;-46
2022/02/03 00:53:06;;;;;;;18.70;16.80;;;;;21.80;100923.00;;;;2050237;28;20236;-46
2022/02/03 00:54:09;;;;;;;17.58;15.77;;;;;21.80;100924.00;;;;2055812;28;20222;-46
2022/02/03 00:55:10;;;;;;;17.83;16.02;;;;;21.80;100925.00;;;;2054469;28;20227;-46
2022/02/03 00:56:17;;;;;;;18.80;16.80;;;;;21.80;100919.00;;;;2053750;28;20225;-46
2022/02/03 00:57:29;;;;;;;16.92;15.23;;;;;21.80;100914.00;;;;2059019;28;20277;-46
2022/02/03 00:58:29;;;;;;;16.70;14.75;;;;;21.80;100927.00;;;;2061763;28;20300;-46
2022/02/03 00:59:37;;;;;;;17.30;15.50;;;;;21.80;100913.00;;;;2057518;28;20692;-46
2022/02/03 01:00:38;;;;;;;17.52;15.82;;;;;21.80;100919.00;;;;2052495;28;20230;-46
2022/02/03 01:01:40;;;;;;;16.33;14.73;;;;;21.80;100920.00;;;;2045704;28;20216;-46
2022/02/03 01:02:47;;;;;;;17.42;15.50;;;;;21.80;100916.00;;;;2052736;28;20219;-46
2022/02/03 01:03:49;;;;;;;16.73;15.10;;;;;21.80;100918.00;;;;2053185;28;20223;-46
2022/02/03 01:04:50;;;;;;;16.48;14.82;;;;;21.80;100906.00;;;;2052738;28;20222;-46
2022/02/03 01:05:50;;;;;;;17.03;15.33;;;;;21.80;100914.00;;;;2053256;28;20767;-46
2022/02/03 01:06:54;;;;;;;15.83;14.30;;;;;21.80;100915.00;;;;2053063;28;20223;-46
2022/02/03 01:07:55;;;;;;;16.52;14.85;;;;;21.80;100913.00;;;;2057523;28;20223;-46
2022/02/03 01:08:55;;;;;;;17.50;15.80;;;;;21.70;100919.00;;;;2051269;28;20306;-46
2022/02/03 01:10:11;;;;;;;16.90;15.10;;;;;21.70;100907.00;;;;2052950;28;20261;-46
2022/02/03 01:11:16;;;;;;;16.40;14.80;;;;;21.70;100913.00;;;;2055575;28;20722;-51
2022/02/03 01:12:49;;;;;;;16.42;14.73;;;;;21.70;100897.00;;;;2061772;28;20219;-46
2022/02/03 01:13:46;;;;;;;15.70;14.20;;;;;21.70;100909.00;;;;2060509;28;20230;-46
2022/02/03 01:14:59;;;;;;;15.88;14.25;;;;;21.70;100904.00;;;;2059068;28;20680;-46
2022/02/03 01:17:34;;;;;;;15.80;14.20;;;;;21.70;100908.00;;;;2060986;28;20218;-46
2022/02/03 01:20:35;;;;;;;15.95;14.35;;;;;21.70;100896.00;;;;2054206;28;21125;-47
2022/02/03 01:33:56;;;;;;;15.15;13.65;;;;;21.60;100900.00;;;;2053129;28;20215;-46
2022/02/03 01:35:07;;;;;;;15.27;13.15;;;;;21.70;100904.00;;;;2049197;28;20230;-46
2022/02/03 01:44:33;;;;;;;14.60;13.23;;;;;21.60;100888.00;;;;2055012;28;20219;-46
2022/02/03 01:45:25;;;;;;;13.80;12.50;;;;;21.60;100894.00;;;;2055693;28;20203;-46
2022/02/03 01:46:46;;;;;;;14.02;12.63;;;;;21.60;100891.00;;;;2054730;28;20246;-46
2022/02/03 01:47:55;;;;;;;13.63;12.32;;;;;21.60;100891.00;;;;2054957;28;20330;-45
2022/02/03 01:49:10;;;;;;;14.23;12.82;;;;;21.60;100905.00;;;;2051482;28;20219;-46
2022/02/03 01:52:38;;;;;;;13.27;11.98;;;;;21.60;100893.00;;;;2063274;28;20206;-46
2022/02/03 01:53:38;;;;;;;13.70;12.40;;;;;21.60;100895.00;;;;2063459;28;20226;-46
2022/02/03 01:54:39;;;;;;;14.13;12.83;;;;;21.60;100895.00;;;;2061903;28;20965;-46
2022/02/03 01:55:39;;;;;;;12.93;11.70;;;;;21.60;100892.00;;;;2062489;28;22172;-46
2022/02/03 01:56:42;;;;;;;14.07;12.77;;;;;21.60;100895.00;;;;2061856;28;20292;-46
2022/02/03 01:57:47;;;;;;;12.82;11.63;;;;;21.60;100890.00;;;;2052605;28;20230;-46
2022/02/03 01:58:47;;;;;;;14.13;12.82;;;;;21.60;100894.00;;;;2062427;28;20695;-46
2022/02/03 01:59:51;;;;;;;13.20;11.90;;;;;21.60;100889.00;;;;2062408;28;20222;-46
2022/02/03 02:00:57;;;;;;;14.15;12.75;;;;;21.60;100902.00;;;;2052834;28;20266;-48
2022/02/03 02:02:01;;;;;;;13.52;12.23;;;;;21.60;100897.00;;;;2055312;28;20219;-45
2022/02/03 02:03:02;;;;;;;12.70;11.48;;;;;21.60;100896.00;;;;2062950;28;20639;-46
2022/02/03 02:04:33;;;;;;;12.27;10.97;;;;;21.60;100887.00;;;;2062421;28;20223;-46
2022/02/03 02:06:09;;;;;;;13.45;12.18;;;;;21.60;100883.00;;;;2062722;28;20215;-46
2022/02/03 02:07:18;;;;;;;12.85;11.75;;;;;21.60;100882.00;;;;2062551;28;20226;-46
2022/02/03 02:08:51;;;;;;;13.43;12.20;;;;;21.50;100874.00;;;;2062887;28;20222;-46
2022/02/03 02:10:17;;;;;;;11.80;10.80;;;;;21.50;100885.00;;;;2052467;28;20541;-46
2022/02/03 02:11:36;;;;;;;12.65;11.45;;;;;21.50;100887.00;;;;2047002;28;20299;-46
2022/02/03 02:13:04;;;;;;;13.43;12.23;;;;;21.50;100887.00;;;;2046625;28;20283;-46
2022/02/03 02:16:07;;;;;;;12.48;11.20;;;;;21.50;100878.00;;;;2054427;28;20716;-46
2022/02/03 02:36:56;;;;;;;11.35;10.35;;;;;21.50;100880.00;;;;2047373;28;20220;-46
2022/02/03 02:40:04;;;;;;;12.75;11.52;;;;;21.50;100851.00;;;;2051231;28;20215;-46
2022/02/03 02:43:36;;;;;;;11.48;10.48;;;;;21.40;100844.00;;;;2046296;28;20743;-46
2022/02/03 02:45:11;;;;;;;13.15;11.85;;;;;21.40;100835.00;;;;2045533;28;20224;-45
2022/02/03 02:46:26;;;;;;;12.88;11.73;;;;;21.40;100845.00;;;;2018817;29;20762;-45
2022/02/03 02:47:49;;;;;;;11.90;10.80;;;;;21.40;100838.00;;;;2042197;28;20208;-46
2022/02/03 02:49:13;;;;;;;11.45;10.45;;;;;21.40;100839.00;;;;2046154;28;20219;-46
2022/02/03 02:50:16;;;;;;;11.02;10.02;;;;;21.40;100839.00;;;;2046245;28;20245;-46
2022/02/03 02:51:23;;;;;;;12.73;11.52;;;;;21.40;100833.00;;;;2046312;28;20666;-46
2022/02/03 02:52:29;;;;;;;12.00;10.80;;;;;21.40;100821.00;;;;2046809;28;20227;-46
2022/02/03 02:54:06;;;;;;;10.40;9.35;;;;;21.40;100833.00;;;;2046114;28;20588;-46
2022/02/03 03:29:43;;;;;;;10.15;9.25;;;;;21.30;100804.00;;;;2046473;28;20252;-46
2022/02/03 03:32:15;;;;;;;11.17;10.07;;;;;21.30;100808.00;;;;2040621;28;20292;-46
2022/02/03 03:33:51;;;;;;;10.85;9.85;;;;;21.30;100809.00;;;;2046193;28;20580;-46
2022/02/03 03:35:11;;;;;;;11.55;10.45;;;;;21.30;100810.00;;;;2043599;28;20213;-46
2022/02/03 03:36:16;;;;;;;11.05;10.05;;;;;21.30;100814.00;;;;2045287;28;20220;-46
2022/02/03 03:37:27;;;;;;;10.73;9.82;;;;;21.30;100807.00;;;;2045332;28;20274;-46
2022/02/03 03:38:30;;;;;;;10.30;9.40;;;;;21.30;100813.00;;;;2046158;28;20208;-45
2022/02/03 03:39:39;;;;;;;10.88;9.98;;;;;21.30;100820.00;;;;2046051;28;20219;-46
2022/02/03 03:40:40;;;;;;;10.10;9.20;;;;;21.30;100821.00;;;;2038171;28;20881;-46
2022/02/03 03:41:44;;;;;;;11.05;10.00;;;;;21.30;100816.00;;;;2044068;28;20959;-47
2022/02/03 03:42:51;;;;;;;11.52;10.52;;;;;21.30;100811.00;;;;2045360;28;20216;-46
2022/02/03 03:44:03;;;;;;;10.75;9.75;;;;;21.30;100814.00;;;;2046044;28;20765;-46
2022/02/03 03:45:08;;;;;;;11.07;10.07;;;;;21.30;100808.00;;;;2047006;28;20227;-46
2022/02/03 03:46:15;;;;;;;11.00;10.00;;;;;21.30;100812.00;;;;2053332;28;20212;-46
2022/02/03 03:47:20;;;;;;;10.75;9.68;;;;;21.30;100804.00;;;;2046025;28;20227;-45
2022/02/03 03:48:20;;;;;;;10.20;9.30;;;;;21.30;100801.00;;;;2038108;28;20233;-46
2022/02/03 03:49:46;;;;;;;10.20;9.30;;;;;21.30;100801.00;;;;2038238;28;20220;-46
2022/02/03 03:50:50;;;;;;;10.40;9.50;;;;;21.30;100804.00;;;;2048483;28;20238;-46
2022/02/03 03:51:57;;;;;;;11.98;10.85;;;;;21.30;100792.00;;;;2040570;28;20201;-46
2022/02/03 03:53:07;;;;;;;10.80;9.73;;;;;21.30;100795.00;;;;2054092;28;20216;-46
2022/02/03 03:54:09;;;;;;;11.25;10.25;;;;;21.30;100788.00;;;;2054420;28;20237;-46
2022/02/03 03:56:33;;;;;;;11.38;10.27;;;;;21.20;100781.00;;;;2045592;28;20208;-46
2022/02/03 04:34:03;;;;;;;10.30;9.32;;;;;21.10;100715.00;;;;2052447;28;20223;-45
2022/02/03 04:35:53;;;;;;;10.50;9.60;;;;;21.20;100723.00;;;;2047839;28;20347;-46
2022/02/03 04:40:27;;;;;;;10.00;9.10;;;;;21.10;100730.00;;;;2046872;28;20306;-45
2022/02/03 04:44:05;;;;;;;8.80;8.00;;;;;21.10;100744.00;;;;2022304;28;20222;-46
2022/02/03 04:57:07;;;;;;;8.15;7.45;;;;;21.10;100733.00;;;;2060556;28;20218;-45
2022/02/03 05:02:13;;;;;;;7.57;6.95;;;;;21.10;100727.00;;;;2043852;28;20322;-45
2022/02/03 05:05:04;;;;;;;7.95;7.20;;;;;21.10;100738.00;;;;2052857;28;20219;-46
2022/02/03 05:07:45;;;;;;;7.47;6.78;;;;;21.10;100728.00;;;;2049977;28;20212;-46
2022/02/03 05:11:47;;;;;;;7.70;7.10;;;;;21.10;100735.00;;;;2046691;28;20227;-46
2022/02/03 05:16:11;;;;;;;6.95;6.35;;;;;21.00;100723.00;;;;2047391;28;20216;-46
2022/02/03 05:20:22;;;;;;;6.45;5.85;;;;;21.00;100708.00;;;;2042730;28;20216;-48
2022/02/03 05:22:33;;;;;;;5.78;5.35;;;;;21.00;100714.00;;;;2043998;28;20212;-46
2022/02/03 05:24:28;;;;;;;5.80;5.30;;;;;20.90;100703.00;;;;2047345;28;20608;-46
2022/02/03 05:25:55;;;;;;;6.75;6.15;;;;;21.00;100704.00;;;;2047189;28;20685;-46
2022/02/03 05:32:34;;;;;;;6.05;5.55;;;;;21.00;100703.00;;;;2038928;28;20714;-45
2022/02/03 05:43:37;;;;;;;4.57;4.18;;;;;21.00;100702.00;;;;2046772;28;20219;-46
2022/02/03 05:50:39;;;;;;;4.88;4.38;;;;;21.00;100695.00;;;;2045878;28;20216;-52
2022/02/03 06:02:36;;;;;;;4.38;3.50;;;;;20.90;100681.00;;;;2051465;28;20215;-46
2022/02/03 06:06:03;;;;;;;4.13;3.72;;;;;21.00;100677.00;;;;2055195;28;20591;-46
2022/02/03 06:08:34;;;;;;;4.32;3.78;;;;;21.00;100659.00;;;;2046284;28;20668;-46
2022/02/03 06:12:35;;;;;;;5.97;3.60;;;;;21.00;100669.00;;;;2054365;28;20616;-46
2022/02/03 06:14:56;;;;;;;4.97;3.65;;;;;21.00;100679.00;;;;2051253;28;20692;-46
2022/02/03 06:21:26;;;;;;;3.95;3.05;;;;;21.10;100673.00;;;;2041852;28;20224;-46
2022/02/03 06:22:46;;;;;;;3.40;2.97;;;;;21.10;100671.00;;;;2052073;28;20919;-46
2022/02/03 06:24:14;;;;;;;3.65;2.60;;;;;21.10;100667.00;;;;2054171;28;20215;-46
2022/02/03 06:27:47;;;;;;;2.60;2.28;;;;;21.10;100666.00;;;;2054440;28;20223;-46
2022/02/03 06:28:48;;;;;;;3.92;2.55;;;;;21.10;100666.00;;;;2054617;28;20587;-46
2022/02/03 06:29:52;;;;;;;5.05;2.35;;;;;21.10;100670.00;;;;2043713;28;20219;-46
2022/02/03 06:30:53;;;;;;;3.05;2.40;;;;;21.20;100674.00;;;;2046348;28;20204;-46
2022/02/03 06:31:53;;;;;;;2.53;2.33;;;;;21.20;100674.00;;;;2047248;28;20246;-46
2022/02/03 06:32:54;;;;;;;2.47;2.27;;;;;21.20;100677.00;;;;2047057;28;20233;-46
2022/02/03 06:33:55;;;;;;;3.43;2.37;;;;;21.20;100673.00;;;;2044908;28;20215;-46
2022/02/03 06:34:55;;;;;;;5.00;1.83;;;;;21.20;100671.00;;;;2045958;28;20685;-46
2022/02/03 06:35:55;;;;;;;3.33;2.00;;;;;21.20;100670.00;;;;2046467;28;20223;-46
2022/02/03 06:36:56;;;;;;;4.63;2.50;;;;;21.20;100670.00;;;;2047078;28;20220;-46
2022/02/03 06:37:56;;;;;;;4.03;2.50;;;;;21.30;100671.00;;;;2046408;28;20239;-46
2022/02/03 06:38:57;;;;;;;3.60;2.20;;;;;21.30;100665.00;;;;2046778;28;20272;-46
2022/02/03 06:39:57;;;;;;;2.63;2.03;;;;;21.30;100670.00;;;;2046861;28;20405;-46
2022/02/03 06:40:57;;;;;;;2.63;2.40;;;;;21.30;100670.00;;;;2046574;28;20216;-46
2022/02/03 06:42:00;;;;;;;2.10;1.80;;;;;21.30;100674.00;;;;2046940;28;20251;-46
2022/02/03 06:43:00;;;;;;;2.45;2.25;;;;;21.30;100667.00;;;;2046936;28;20322;-46
2022/02/03 06:44:01;;;;;;;3.20;1.70;;;;;21.30;100673.00;;;;2047066;28;20717;-46
2022/02/03 06:45:13;;;;;;;3.60;2.33;;;;;21.30;100666.00;;;;2046210;28;20518;-46
2022/02/03 06:46:14;;;;;;;2.40;2.20;;;;;21.30;100669.00;;;;2046671;28;20208;-46
2022/02/03 06:48:20;;;;;;;3.65;2.60;;;;;21.30;100664.00;;;;2047097;28;20220;-46
2022/02/03 06:50:35;;;;;;;3.70;3.20;;;;;21.40;100666.00;;;;2046187;28;20223;-46
2022/02/03 06:51:42;;;;;;;4.70;3.50;;;;;21.40;100662.00;;;;2046892;28;20228;-46
2022/02/03 06:53:50;;;;;;;5.07;4.20;;;;;21.40;100654.00;;;;2045787;28;20700;-45
2022/02/03 06:55:41;;;;;;;7.60;6.13;;;;;21.40;100658.00;;;;2046276;28;20255;-46
2022/02/03 06:56:33;;;;;;;12.48;9.82;;;;;21.40;100666.00;;;;2040586;28;20303;-46
2022/02/03 06:57:41;;;;;;;9.77;8.63;;;;;21.40;100655.00;;;;2045806;28;20290;-46
2022/02/03 06:58:52;;;;;;;11.65;10.35;;;;;21.40;100643.00;;;;2046113;28;20216;-46
2022/02/03 07:00:03;;;;;;;10.10;8.38;;;;;21.40;100649.00;;;;2045889;28;20212;-46
2022/02/03 07:01:14;;;;;;;13.15;10.20;;;;;21.40;100650.00;;;;2045706;28;20219;-46
2022/02/03 07:02:15;;;;;;;10.32;9.20;;;;;21.50;100653.00;;;;2046441;28;20315;-46
2022/02/03 07:03:20;;;;;;;12.27;9.13;;;;;21.40;100654.00;;;;2046237;28;20562;-46
2022/02/03 07:04:25;;;;;;;13.77;11.50;;;;;21.50;100663.00;;;;2046709;28;20235;-46
2022/02/03 07:05:25;;;;;;;13.80;11.00;;;;;21.50;100651.00;;;;2046421;28;20216;-46
2022/02/03 07:06:28;;;;;;;16.63;14.10;;;;;21.50;100644.00;;;;2046319;28;20201;-46
2022/02/03 07:07:28;;;;;;;19.65;16.48;;;;;21.50;100654.00;;;;2046167;28;20223;-45
2022/02/03 07:08:31;;;;;;;18.53;14.60;;;;;21.50;100643.00;;;;2046912;28;25105;-46
2022/02/03 07:09:31;;;;;;;19.33;14.10;;;;;21.50;100648.00;;;;2046790;28;20220;-46
2022/02/03 07:10:31;;;;;;;21.40;16.27;;;;;21.50;100644.00;;;;2046150;28;20216;-46
2022/02/03 07:11:32;;;;;;;22.83;16.93;;;;;21.50;100639.00;;;;2046823;28;20275;-46
2022/02/03 07:12:32;;;;;;;21.43;16.63;;;;;21.50;100638.00;;;;2046734;28;20271;-46
2022/02/03 07:13:34;;;;;;;19.97;16.47;;;;;21.50;100651.00;;;;2046892;28;20286;-46
2022/02/03 07:14:35;;;;;;;23.23;18.70;;;;;21.50;100655.00;;;;2047961;28;20664;-46
2022/02/03 07:15:36;;;;;;;30.30;22.60;;;;;21.50;100649.00;;;;2053648;28;20223;-46
2022/02/03 07:16:45;;;;;;;27.30;21.43;;;;;21.50;100655.00;;;;2054205;28;20288;-46
2022/02/03 07:17:46;;;;;;;31.80;21.90;;;;;21.50;100645.00;;;;2054184;28;20215;-46
2022/02/03 07:18:46;;;;;;;25.13;20.00;;;;;21.50;100647.00;;;;2054027;28;20217;-46
2022/02/03 07:19:49;;;;;;;26.27;20.40;;;;;21.50;100646.00;;;;2053449;28;20322;-46
2022/02/03 07:20:50;;;;;;;24.52;20.40;;;;;21.50;100649.00;;;;2045872;28;20212;-46
2022/02/03 07:21:51;;;;;;;26.35;20.35;;;;;21.60;100649.00;;;;2046726;28;20231;-46
2022/02/03 07:22:51;;;;;;;26.20;20.20;;;;;21.60;100646.00;;;;2046701;28;20700;-46
2022/02/03 07:23:51;;;;;;;28.33;21.30;;;;;21.60;100646.00;;;;2045656;28;20212;-46
2022/02/03 07:24:52;;;;;;;26.20;21.20;;;;;21.60;100648.00;;;;2045977;28;20216;-46
2022/02/03 07:25:52;;;;;;;26.60;21.83;;;;;21.60;100654.00;;;;2046316;28;20685;-46
2022/02/03 07:26:53;;;;;;;26.30;21.80;;;;;21.60;100655.00;;;;2044769;28;20219;-46
2022/02/03 07:27:53;;;;;;;27.10;22.40;;;;;21.60;100645.00;;;;2045723;28;20295;-46
2022/02/03 07:28:53;;;;;;;27.73;21.57;;;;;21.60;100647.00;;;;2046812;28;20208;-46
2022/02/03 07:29:54;;;;;;;32.30;24.10;;;;;21.60;100633.00;;;;2046631;28;20968;-46
2022/02/03 07:30:55;;;;;;;26.50;21.90;;;;;21.60;100635.00;;;;2046333;28;20219;-46
2022/02/03 07:31:55;;;;;;;28.60;22.77;;;;;21.60;100627.00;;;;2046646;28;20464;-46
2022/02/03 07:32:58;;;;;;;33.97;24.93;;;;;21.60;100632.00;;;;2046155;28;20468;-46
2022/02/03 07:34:05;;;;;;;30.80;23.52;;;;;21.60;100623.00;;;;2053003;28;20215;-46
2022/02/03 07:35:05;;;;;;;31.17;24.63;;;;;21.60;100623.00;;;;2054557;28;20211;-46
2022/02/03 07:36:06;;;;;;;27.60;22.93;;;;;21.60;100617.00;;;;2054412;28;20227;-46
2022/02/03 07:37:06;;;;;;;30.87;23.33;;;;;21.60;100612.00;;;;2054233;28;20226;-46
2022/02/03 07:38:08;;;;;;;29.53;22.17;;;;;21.60;100614.00;;;;2054213;28;20227;-45
2022/02/03 07:39:08;;;;;;;29.77;23.90;;;;;21.60;100607.00;;;;2054066;28;20215;-46
2022/02/03 07:40:09;;;;;;;30.27;22.93;;;;;21.60;100606.00;;;;2054733;28;21304;-46
2022/02/03 07:41:09;;;;;;;28.43;22.60;;;;;21.60;100603.00;;;;2053998;28;20225;-46
2022/02/03 07:42:10;;;;;;;27.83;23.07;;;;;21.70;100606.00;;;;2054738;28;20702;-45
2022/02/03 07:43:11;;;;;;;29.17;22.93;;;;;21.60;100596.00;;;;2054451;28;20215;-45
2022/02/03 07:44:14;;;;;;;29.03;23.20;;;;;21.60;100603.00;;;;2053615;28;20311;-45
2022/02/03 07:45:16;;;;;;;29.15;23.60;;;;;21.70;100600.00;;;;2046688;28;20459;-46
2022/02/03 07:46:17;;;;;;;25.38;21.95;;;;;21.70;100600.00;;;;2045130;28;20212;-47
2022/02/03 07:47:17;;;;;;;29.27;22.80;;;;;21.70;100602.00;;;;2045928;28;20741;-46
2022/02/03 07:48:19;;;;;;;26.77;21.70;;;;;21.70;100614.00;;;;2044476;28;20817;-46
2022/02/03 07:49:19;;;;;;;28.40;22.35;;;;;21.60;100606.00;;;;2046013;28;20212;-46
2022/02/03 07:50:20;;;;;;;25.90;20.57;;;;;21.60;100623.00;;;;2046600;28;20287;-46
2022/02/03 07:51:20;;;;;;;29.63;21.07;;;;;21.60;100614.00;;;;2045822;28;20216;-45
2022/02/03 07:52:20;;;;;;;24.83;21.07;;;;;21.60;100611.00;;;;2045827;28;20220;-45
2022/02/03 07:53:21;;;;;;;28.23;21.07;;;;;21.60;100620.00;;;;2054109;28;20223;-45
2022/02/03 07:54:21;;;;;;;29.93;21.77;;;;;21.60;100609.00;;;;2052146;28;20216;-46
2022/02/03 07:55:22;;;;;;;24.40;19.70;;;;;21.60;100606.00;;;;2046689;28;20212;-45
2022/02/03 07:56:23;;;;;;;22.80;18.80;;;;;21.60;100602.00;;;;2046302;28;20588;-46
2022/02/03 07:57:23;;;;;;;23.43;19.20;;;;;21.60;100599.00;;;;2046425;28;20224;-46
2022/02/03 07:58:24;;;;;;;24.13;19.33;;;;;21.60;100598.00;;;;2046594;28;20306;-46
2022/02/03 07:59:24;;;;;;;23.30;19.10;;;;;21.60;100609.00;;;;2046415;28;20235;-46
2022/02/03 08:00:24;;;;;;;24.87;19.37;;;;;21.60;100613.00;;;;2045957;28;20229;-46
2022/02/03 08:01:25;;;;;;;25.57;19.87;;;;;21.60;100608.00;;;;2046101;28;20235;-45
2022/02/03 08:02:26;;;;;;;22.77;19.30;;;;;21.60;100615.00;;;;2046646;28;20212;-47
2022/02/03 08:03:26;;;;;;;30.00;22.10;;;;;21.60;100614.00;;;;2046300;28;20220;-46
2022/02/03 08:04:30;;;;;;;26.53;20.33;;;;;21.60;100610.00;;;;2051748;28;20215;-46
2022/02/03 08:05:31;;;;;;;27.52;21.02;;;;;21.60;100610.00;;;;2052615;28;20234;-46
2022/02/03 08:06:35;;;;;;;26.43;20.50;;;;;21.60;100617.00;;;;2047100;28;20216;-46
2022/02/03 08:07:47;;;;;;;26.08;19.75;;;;;21.60;100620.00;;;;2054435;28;20494;-46
2022/02/03 08:08:52;;;;;;;27.63;20.83;;;;;21.60;100620.00;;;;2054500;28;20215;-46
2022/02/03 08:10:03;;;;;;;24.00;19.55;;;;;21.60;100626.00;;;;2054212;28;20215;-45
2022/02/03 08:11:08;;;;;;;26.70;21.25;;;;;21.60;100618.00;;;;2054221;28;20207;-46
2022/02/03 08:12:11;;;;;;;27.15;20.15;;;;;21.60;100620.00;;;;2054413;28;20215;-46
2022/02/03 08:13:17;;;;;;;28.20;20.90;;;;;21.50;100612.00;;;;2054573;28;20216;-46
2022/02/03 08:14:33;;;;;;;24.55;20.27;;;;;21.60;100601.00;;;;2054497;28;20222;-46
2022/02/03 08:15:36;;;;;;;27.25;22.40;;;;;21.60;100600.00;;;;2054336;28;20269;-46
2022/02/03 08:17:03;;;;;;;25.20;20.50;;;;;21.60;100601.00;;;;2054238;28;20215;-46
2022/02/03 08:18:03;;;;;;;24.60;20.80;;;;;21.60;100593.00;;;;2061080;28;20210;-46
2022/02/03 08:19:12;;;;;;;31.73;22.17;;;;;21.60;100594.00;;;;2058913;28;20211;-46
2022/02/03 08:20:17;;;;;;;26.10;21.60;;;;;21.60;100592.00;;;;2062158;28;20219;-46
2022/02/03 08:21:19;;;;;;;25.05;19.50;;;;;21.50;100575.00;;;;2062303;28;20214;-46
2022/02/03 08:22:44;;;;;;;26.70;21.33;;;;;21.50;100564.00;;;;2061711;28;20731;-46
2022/02/03 08:24:14;;;;;;;26.83;21.67;;;;;21.60;100561.00;;;;2062123;28;20222;-45
2022/02/03 08:25:41;;;;;;;25.65;19.80;;;;;21.50;100558.00;;;;2062065;28;20262;-46
2022/02/03 08:28:26;;;;;;;24.58;19.90;;;;;21.60;100561.00;;;;2056886;28;20219;-46
2022/02/03 08:30:47;;;;;;;28.95;20.33;;;;;21.60;100549.00;;;;2062394;28;20306;-46
2022/02/03 08:31:53;;;;;;;27.08;20.70;;;;;21.50;100547.00;;;;2061077;28;20217;-47
2022/02/03 08:32:58;;;;;;;27.05;20.90;;;;;21.50;100548.00;;;;2042388;28;20215;-46
2022/02/03 08:33:58;;;;;;;26.73;20.10;;;;;21.50;100549.00;;;;2050099;28;20559;-46
2022/02/03 08:35:18;;;;;;;27.27;21.10;;;;;21.60;100551.00;;;;2054067;28;20262;-46
2022/02/03 08:36:19;;;;;;;25.52;20.13;;;;;21.60;100552.00;;;;2044127;28;20218;-46
2022/02/03 08:37:21;;;;;;;24.73;20.00;;;;;21.50;100548.00;;;;2046241;28;20684;-46
2022/02/03 08:39:55;;;;;;;23.10;20.23;;;;;21.50;100540.00;;;;2046357;28;20215;-46
2022/02/03 08:41:02;;;;;;;25.20;20.88;;;;;21.60;100545.00;;;;2042155;28;20302;-46
2022/02/03 08:42:02;;;;;;;27.00;20.73;;;;;21.60;100542.00;;;;2046290;28;20228;-46
2022/02/03 08:43:03;;;;;;;26.07;20.63;;;;;21.60;100538.00;;;;2053065;28;20215;-46
2022/02/03 08:44:04;;;;;;;24.70;19.30;;;;;21.60;100536.00;;;;2046188;28;20367;-46
2022/02/03 08:45:05;;;;;;;23.77;19.20;;;;;21.50;100544.00;;;;2045428;28;20709;-46
2022/02/03 08:46:07;;;;;;;24.50;19.03;;;;;21.50;100547.00;;;;2048862;28;20230;-46
2022/02/03 08:47:07;;;;;;;23.17;19.73;;;;;21.60;100559.00;;;;2052854;28;20223;-46
2022/02/03 08:48:07;;;;;;;22.27;18.83;;;;;21.60;100559.00;;;;2049180;28;20700;-46
2022/02/03 08:49:08;;;;;;;24.53;19.00;;;;;21.60;100563.00;;;;2046216;28;20693;-46
2022/02/03 08:50:08;;;;;;;22.00;18.87;;;;;21.60;100568.00;;;;2046243;28;20223;-46
2022/02/03 08:51:09;;;;;;;24.83;18.33;;;;;21.60;100551.00;;;;2046594;28;20647;-46
2022/02/03 08:52:17;;;;;;;24.47;19.20;;;;;21.60;100560.00;;;;2053858;28;20628;-46
2022/02/03 08:54:18;;;;;;;24.50;19.00;;;;;21.60;100551.00;;;;2046432;28;20688;-46
2022/02/03 09:29:55;;;;;;;16.65;14.85;;;;;21.60;100542.00;;;;2054674;28;20306;-46
2022/02/03 09:54:53;;;;;;;13.70;11.50;;;;;21.60;100520.00;;;;2050300;28;20295;-46
2022/02/03 09:58:15;;;;;;;13.43;12.03;;;;;21.60;100524.00;;;;2050680;28;20224;-46
2022/02/03 09:59:17;;;;;;;12.98;11.65;;;;;21.60;100520.00;;;;2049400;28;20458;-46
2022/02/03 10:01:55;;;;;;;12.20;10.93;;;;;21.60;100517.00;;;;2060301;28;20215;-46
2022/02/03 10:02:56;;;;;;;13.73;11.18;;;;;21.60;100513.00;;;;2063170;28;20544;-46
2022/02/03 10:04:11;;;;;;;13.80;11.57;;;;;21.60;100511.00;;;;2063484;28;20210;-46
2022/02/03 10:05:32;;;;;;;12.73;11.07;;;;;21.60;100507.00;;;;2062265;28;20230;-46
2022/02/03 10:06:33;;;;;;;12.93;11.48;;;;;21.50;100507.00;;;;2062944;28;20265;-46
2022/02/03 10:07:38;;;;;;;12.70;10.57;;;;;21.50;100504.00;;;;2046544;28;20216;-46
2022/02/03 10:08:49;;;;;;;12.93;11.48;;;;;21.50;100494.00;;;;2051292;28;20211;-46
2022/02/03 10:09:53;;;;;;;12.43;11.15;;;;;21.50;100489.00;;;;2059733;28;20219;-46
2022/02/03 10:11:09;;;;;;;13.45;11.27;;;;;21.50;100484.00;;;;2053923;28;20650;-46
2022/02/03 10:12:10;;;;;;;13.38;11.02;;;;;21.60;100481.00;;;;2055093;28;20703;-46
2022/02/03 10:13:21;;;;;;;11.70;10.50;;;;;21.50;100482.00;;;;2058478;28;20219;-48
2022/02/03 10:14:30;;;;;;;11.48;10.27;;;;;21.50;100496.00;;;;2050764;28;20452;-46
2022/02/03 10:15:31;;;;;;;11.35;10.15;;;;;21.60;100480.00;;;;2047270;28;20282;-46
2022/02/03 10:16:33;;;;;;;10.90;9.80;;;;;21.50;100476.00;;;;2049824;28;20282;-46
2022/02/03 10:17:45;;;;;;;11.35;10.05;;;;;21.50;100485.00;;;;2054644;28;20230;-46
2022/02/03 10:18:46;;;;;;;11.65;9.57;;;;;21.50;100482.00;;;;2054821;28;20322;-46
2022/02/03 10:19:58;;;;;;;10.85;9.10;;;;;21.50;100480.00;;;;2055127;28;20219;-46
2022/02/03 10:21:00;;;;;;;11.25;10.10;;;;;21.50;100474.00;;;;2045597;28;20796;-46
2022/02/03 10:22:02;;;;;;;11.20;10.00;;;;;21.50;100473.00;;;;2046644;28;20209;-46
2022/02/03 10:23:05;;;;;;;9.90;8.82;;;;;21.50;100480.00;;;;2046932;28;20259;-46
2022/02/03 10:24:07;;;;;;;10.50;9.45;;;;;21.50;100475.00;;;;2047420;28;20295;-46
2022/02/03 10:25:11;;;;;;;11.60;9.18;;;;;21.50;100483.00;;;;2047189;28;20704;-46
2022/02/03 10:26:11;;;;;;;10.85;9.75;;;;;21.50;100485.00;;;;2048341;28;20712;-46
2022/02/03 10:27:23;;;;;;;11.83;9.83;;;;;21.50;100485.00;;;;2054765;28;20228;-46
2022/02/03 10:28:24;;;;;;;10.60;9.43;;;;;21.50;100480.00;;;;2054917;28;20216;-46
2022/02/03 10:29:29;;;;;;;10.10;9.10;;;;;21.50;100490.00;;;;2049716;28;20205;-46
2022/02/03 10:30:47;;;;;;;12.93;9.50;;;;;21.50;100491.00;;;;2052973;28;20208;-46